sensor_id;sensor_type;location;lat;lon;timestamp;temperature;humidity
6654;DHT22;3363;50.942;7.034;2023-10-09T00:01:25;17.10;99.90
6654;DHT22;3363;50.942;7.034;2023-10-09T00:03:52;17.00;99.90
6654;DHT22;3363;50.942;7.034;2023-10-09T00:06:21;17.00;99.90
6654;DHT22;3363;50.942;7.034;2023-10-09T00:08:49;17.00;99.90
6654;DHT22;3363;50.942;7.034;2023-10-09T00:11:16;17.00;99.90
6654;DHT22;3363;50.942;7.034;2023-10-09T00:13:46;17.00;99.90
6654;DHT22;3363;50.942;7.034;2023-10-09T00:16:17;17.00;99.90
6654;DHT22;3363;50.942;7.034;2023-10-09T00:18:49;17.00;99.90
6654;DHT22;3363;50.942;7.034;2023-10-09T00:21:16;17.00;99.90
6654;DHT22;3363;50.942;7.034;2023-10-09T00:23:45;17.00;99.90
6654;DHT22;3363;50.942;7.034;2023-10-09T00:26:17;17.00;99.90
6654;DHT22;3363;50.942;7.034;2023-10-09T00:28:47;17.00;99.90
6654;DHT22;3363;50.942;7.034;2023-10-09T00:31:16;17.00;99.90
6654;DHT22;3363;50.942;7.034;2023-10-09T00:33:52;17.00;99.90
6654;DHT22;3363;50.942;7.034;2023-10-09T00:36:20;17.00;99.90
6654;DHT22;3363;50.942;7.034;2023-10-09T00:38:52;16.90;99.90
6654;DHT22;3363;50.942;7.034;2023-10-09T00:41:19;16.90;99.90
6654;DHT22;3363;50.942;7.034;2023-10-09T00:43:51;16.90;99.90
6654;DHT22;3363;50.942;7.034;2023-10-09T00:46:18;16.90;99.90
6654;DHT22;3363;50.942;7.034;2023-10-09T00:48:51;16.90;99.90
6654;DHT22;3363;50.942;7.034;2023-10-09T00:51:19;16.90;99.90
6654;DHT22;3363;50.942;7.034;2023-10-09T00:53:47;16.90;99.90
6654;DHT22;3363;50.942;7.034;2023-10-09T00:56:16;16.90;99.90
6654;DHT22;3363;50.942;7.034;2023-10-09T00:58:56;16.90;99.90
6654;DHT22;3363;50.942;7.034;2023-10-09T01:01:32;16.90;99.90
6654;DHT22;3363;50.942;7.034;2023-10-09T01:04:02;16.80;99.90
6654;DHT22;3363;50.942;7.034;2023-10-09T01:06:40;16.80;99.90
6654;DHT22;3363;50.942;7.034;2023-10-09T01:09:10;16.80;99.90
6654;DHT22;3363;50.942;7.034;2023-10-09T01:11:38;16.80;99.90
6654;DHT22;3363;50.942;7.034;2023-10-09T01:14:14;16.80;99.90
6654;DHT22;3363;50.942;7.034;2023-10-09T01:16:42;16.80;99.90
6654;DHT22;3363;50.942;7.034;2023-10-09T01:19:09;16.80;99.90
6654;DHT22;3363;50.942;7.034;2023-10-09T01:21:49;16.70;99.90
6654;DHT22;3363;50.942;7.034;2023-10-09T01:24:17;16.80;99.90
6654;DHT22;3363;50.942;7.034;2023-10-09T01:26:45;16.70;99.90
6654;DHT22;3363;50.942;7.034;2023-10-09T01:29:13;16.70;99.90
6654;DHT22;3363;50.942;7.034;2023-10-09T01:31:44;16.70;99.90
6654;DHT22;3363;50.942;7.034;2023-10-09T01:34:17;16.70;99.90
6654;DHT22;3363;50.942;7.034;2023-10-09T01:36:44;16.70;99.90
6654;DHT22;3363;50.942;7.034;2023-10-09T01:39:14;16.60;99.90
6654;DHT22;3363;50.942;7.034;2023-10-09T01:41:50;16.60;99.90
6654;DHT22;3363;50.942;7.034;2023-10-09T01:44:23;16.70;99.90
6654;DHT22;3363;50.942;7.034;2023-10-09T01:46:51;16.60;99.90
6654;DHT22;3363;50.942;7.034;2023-10-09T01:49:20;16.60;99.90
6654;DHT22;3363;50.942;7.034;2023-10-09T01:51:55;16.60;99.90
6654;DHT22;3363;50.942;7.034;2023-10-09T01:54:25;16.50;99.90
6654;DHT22;3363;50.942;7.034;2023-10-09T01:57:03;16.60;99.90
6654;DHT22;3363;50.942;7.034;2023-10-09T01:59:35;16.60;99.90
6654;DHT22;3363;50.942;7.034;2023-10-09T02:02:03;16.50;99.90
6654;DHT22;3363;50.942;7.034;2023-10-09T02:04:41;16.50;99.90
6654;DHT22;3363;50.942;7.034;2023-10-09T02:07:08;16.50;99.90
6654;DHT22;3363;50.942;7.034;2023-10-09T02:09:35;16.50;99.90
6654;DHT22;3363;50.942;7.034;2023-10-09T02:12:11;16.60;99.90
6654;DHT22;3363;50.942;7.034;2023-10-09T02:14:39;16.50;99.90
6654;DHT22;3363;50.942;7.034;2023-10-09T02:17:07;16.40;99.90
6654;DHT22;3363;50.942;7.034;2023-10-09T02:19:35;16.40;99.90
6654;DHT22;3363;50.942;7.034;2023-10-09T02:22:03;16.40;99.90
6654;DHT22;3363;50.942;7.034;2023-10-09T02:24:38;16.40;99.90
6654;DHT22;3363;50.942;7.034;2023-10-09T02:27:24;16.50;99.90
6654;DHT22;3363;50.942;7.034;2023-10-09T02:30:11;16.50;99.90
6654;DHT22;3363;50.942;7.034;2023-10-09T02:32:52;16.50;99.90
6654;DHT22;3363;50.942;7.034;2023-10-09T02:35:32;16.50;99.90
6654;DHT22;3363;50.942;7.034;2023-10-09T02:38:02;16.60;99.90
6654;DHT22;3363;50.942;7.034;2023-10-09T02:40:32;16.60;99.90
6654;DHT22;3363;50.942;7.034;2023-10-09T02:43:08;16.60;99.90
6654;DHT22;3363;50.942;7.034;2023-10-09T02:45:38;16.60;99.90
6654;DHT22;3363;50.942;7.034;2023-10-09T02:48:16;16.60;99.90
6654;DHT22;3363;50.942;7.034;2023-10-09T02:50:45;16.50;99.90
6654;DHT22;3363;50.942;7.034;2023-10-09T02:53:12;16.50;99.90
6654;DHT22;3363;50.942;7.034;2023-10-09T02:55:44;16.50;99.90
6654;DHT22;3363;50.942;7.034;2023-10-09T02:58:30;16.50;99.90
6654;DHT22;3363;50.942;7.034;2023-10-09T03:01:02;16.50;99.90
6654;DHT22;3363;50.942;7.034;2023-10-09T03:03:28;16.50;99.90
6654;DHT22;3363;50.942;7.034;2023-10-09T03:05:55;16.50;99.90
6654;DHT22;3363;50.942;7.034;2023-10-09T03:08:22;16.50;99.90
6654;DHT22;3363;50.942;7.034;2023-10-09T03:10:48;16.50;99.90
6654;DHT22;3363;50.942;7.034;2023-10-09T03:13:15;16.50;99.90
6654;DHT22;3363;50.942;7.034;2023-10-09T03:15:47;16.50;99.90
6654;DHT22;3363;50.942;7.034;2023-10-09T03:18:13;16.50;99.90
6654;DHT22;3363;50.942;7.034;2023-10-09T03:20:40;16.50;99.90
6654;DHT22;3363;50.942;7.034;2023-10-09T03:23:09;16.50;99.90
6654;DHT22;3363;50.942;7.034;2023-10-09T03:25:39;16.50;99.90
6654;DHT22;3363;50.942;7.034;2023-10-09T03:28:07;16.50;99.90
6654;DHT22;3363;50.942;7.034;2023-10-09T03:30:34;16.40;99.90
6654;DHT22;3363;50.942;7.034;2023-10-09T03:33:04;16.40;99.90
6654;DHT22;3363;50.942;7.034;2023-10-09T03:35:32;16.40;99.90
6654;DHT22;3363;50.942;7.034;2023-10-09T03:38:00;16.40;99.90
6654;DHT22;3363;50.942;7.034;2023-10-09T03:40:37;16.40;99.90
6654;DHT22;3363;50.942;7.034;2023-10-09T03:43:04;16.40;99.90
6654;DHT22;3363;50.942;7.034;2023-10-09T03:45:31;16.40;99.90
6654;DHT22;3363;50.942;7.034;2023-10-09T03:48:00;16.40;99.90
6654;DHT22;3363;50.942;7.034;2023-10-09T03:50:35;16.40;99.90
6654;DHT22;3363;50.942;7.034;2023-10-09T03:53:03;16.40;99.90
6654;DHT22;3363;50.942;7.034;2023-10-09T03:55:34;16.40;99.90
6654;DHT22;3363;50.942;7.034;2023-10-09T03:58:00;16.40;99.90
6654;DHT22;3363;50.942;7.034;2023-10-09T04:00:28;16.40;99.90
6654;DHT22;3363;50.942;7.034;2023-10-09T04:02:55;16.40;99.90
6654;DHT22;3363;50.942;7.034;2023-10-09T04:05:22;16.40;99.90
6654;DHT22;3363;50.942;7.034;2023-10-09T04:07:50;16.40;99.90
6654;DHT22;3363;50.942;7.034;2023-10-09T04:10:19;16.40;99.90
6654;DHT22;3363;50.942;7.034;2023-10-09T04:13:16;16.40;99.90
6654;DHT22;3363;50.942;7.034;2023-10-09T04:15:48;16.30;99.90
6654;DHT22;3363;50.942;7.034;2023-10-09T04:18:15;16.40;99.90
6654;DHT22;3363;50.942;7.034;2023-10-09T04:20:46;16.40;99.90
6654;DHT22;3363;50.942;7.034;2023-10-09T04:23:45;16.30;99.90
6654;DHT22;3363;50.942;7.034;2023-10-09T04:26:35;16.30;99.90
6654;DHT22;3363;50.942;7.034;2023-10-09T04:29:02;16.20;99.90
6654;DHT22;3363;50.942;7.034;2023-10-09T04:31:29;16.20;99.90
6654;DHT22;3363;50.942;7.034;2023-10-09T04:34:00;16.30;99.90
6654;DHT22;3363;50.942;7.034;2023-10-09T04:36:55;16.30;99.90
6654;DHT22;3363;50.942;7.034;2023-10-09T04:39:28;16.30;99.90
6654;DHT22;3363;50.942;7.034;2023-10-09T04:42:11;16.30;99.90
6654;DHT22;3363;50.942;7.034;2023-10-09T04:45:03;16.30;99.90
6654;DHT22;3363;50.942;7.034;2023-10-09T04:47:47;16.30;99.90
6654;DHT22;3363;50.942;7.034;2023-10-09T04:50:23;16.30;99.90
6654;DHT22;3363;50.942;7.034;2023-10-09T04:53:13;16.30;99.90
6654;DHT22;3363;50.942;7.034;2023-10-09T04:55:55;16.30;99.90
6654;DHT22;3363;50.942;7.034;2023-10-09T04:58:23;16.30;99.90
6654;DHT22;3363;50.942;7.034;2023-10-09T05:00:51;16.30;99.90
6654;DHT22;3363;50.942;7.034;2023-10-09T05:03:38;16.30;99.90
6654;DHT22;3363;50.942;7.034;2023-10-09T05:06:11;16.20;99.90
6654;DHT22;3363;50.942;7.034;2023-10-09T05:08:58;16.30;99.90
6654;DHT22;3363;50.942;7.034;2023-10-09T05:11:35;16.30;99.90
6654;DHT22;3363;50.942;7.034;2023-10-09T05:14:15;16.30;99.90
6654;DHT22;3363;50.942;7.034;2023-10-09T05:16:42;16.30;99.90
6654;DHT22;3363;50.942;7.034;2023-10-09T05:19:20;16.30;99.90
6654;DHT22;3363;50.942;7.034;2023-10-09T05:21:59;16.20;99.90
6654;DHT22;3363;50.942;7.034;2023-10-09T05:24:32;16.20;99.90
6654;DHT22;3363;50.942;7.034;2023-10-09T05:27:10;16.30;99.90
6654;DHT22;3363;50.942;7.034;2023-10-09T05:30:06;16.20;99.90
6654;DHT22;3363;50.942;7.034;2023-10-09T05:32:50;16.20;99.90
6654;DHT22;3363;50.942;7.034;2023-10-09T05:35:21;16.20;99.90
6654;DHT22;3363;50.942;7.034;2023-10-09T05:37:55;16.20;99.90
6654;DHT22;3363;50.942;7.034;2023-10-09T05:40:27;16.20;99.90
6654;DHT22;3363;50.942;7.034;2023-10-09T05:42:57;16.20;99.90
6654;DHT22;3363;50.942;7.034;2023-10-09T05:45:24;16.20;99.90
6654;DHT22;3363;50.942;7.034;2023-10-09T05:48:09;16.20;99.90
6654;DHT22;3363;50.942;7.034;2023-10-09T05:50:49;16.20;99.90
6654;DHT22;3363;50.942;7.034;2023-10-09T05:53:30;16.20;99.90
6654;DHT22;3363;50.942;7.034;2023-10-09T05:56:21;16.20;99.90
6654;DHT22;3363;50.942;7.034;2023-10-09T05:59:06;16.20;99.90
6654;DHT22;3363;50.942;7.034;2023-10-09T06:01:50;16.20;99.90
6654;DHT22;3363;50.942;7.034;2023-10-09T06:04:34;16.20;99.90
6654;DHT22;3363;50.942;7.034;2023-10-09T06:07:14;16.20;99.90
6654;DHT22;3363;50.942;7.034;2023-10-09T06:09:48;16.20;99.90
6654;DHT22;3363;50.942;7.034;2023-10-09T06:12:18;16.20;99.90
6654;DHT22;3363;50.942;7.034;2023-10-09T06:15:00;16.20;99.90
6654;DHT22;3363;50.942;7.034;2023-10-09T06:17:41;16.20;99.90
6654;DHT22;3363;50.942;7.034;2023-10-09T06:20:10;16.20;99.90
6654;DHT22;3363;50.942;7.034;2023-10-09T06:22:50;16.20;99.90
6654;DHT22;3363;50.942;7.034;2023-10-09T06:25:22;16.20;99.90
6654;DHT22;3363;50.942;7.034;2023-10-09T06:27:58;16.20;99.90
6654;DHT22;3363;50.942;7.034;2023-10-09T06:30:26;16.10;99.90
6654;DHT22;3363;50.942;7.034;2023-10-09T06:32:53;16.20;99.90
6654;DHT22;3363;50.942;7.034;2023-10-09T06:35:45;16.20;99.90
6654;DHT22;3363;50.942;7.034;2023-10-09T06:38:19;16.20;99.90
6654;DHT22;3363;50.942;7.034;2023-10-09T06:40:49;16.20;99.90
6654;DHT22;3363;50.942;7.034;2023-10-09T06:43:33;16.20;99.90
6654;DHT22;3363;50.942;7.034;2023-10-09T06:46:14;16.10;99.90
6654;DHT22;3363;50.942;7.034;2023-10-09T06:49:00;16.20;99.90
6654;DHT22;3363;50.942;7.034;2023-10-09T06:51:44;16.20;99.90
6654;DHT22;3363;50.942;7.034;2023-10-09T06:54:13;16.20;99.90
6654;DHT22;3363;50.942;7.034;2023-10-09T06:56:42;16.20;99.90
6654;DHT22;3363;50.942;7.034;2023-10-09T06:59:26;16.20;99.90
6654;DHT22;3363;50.942;7.034;2023-10-09T07:02:08;16.20;99.90
6654;DHT22;3363;50.942;7.034;2023-10-09T07:04:51;16.20;99.90
6654;DHT22;3363;50.942;7.034;2023-10-09T07:07:20;16.20;99.90
6654;DHT22;3363;50.942;7.034;2023-10-09T07:09:46;16.20;99.90
6654;DHT22;3363;50.942;7.034;2023-10-09T07:12:26;16.20;99.90
6654;DHT22;3363;50.942;7.034;2023-10-09T07:14:53;16.30;99.90
6654;DHT22;3363;50.942;7.034;2023-10-09T07:17:50;16.30;99.90
6654;DHT22;3363;50.942;7.034;2023-10-09T07:20:21;16.20;99.90
6654;DHT22;3363;50.942;7.034;2023-10-09T07:23:10;16.20;99.90
6654;DHT22;3363;50.942;7.034;2023-10-09T07:25:40;16.20;99.90
6654;DHT22;3363;50.942;7.034;2023-10-09T07:28:08;16.20;99.90
6654;DHT22;3363;50.942;7.034;2023-10-09T07:30:54;16.20;99.90
6654;DHT22;3363;50.942;7.034;2023-10-09T07:33:24;16.30;99.90
6654;DHT22;3363;50.942;7.034;2023-10-09T07:36:16;16.20;99.90
6654;DHT22;3363;50.942;7.034;2023-10-09T07:38:55;16.30;99.90
6654;DHT22;3363;50.942;7.034;2023-10-09T07:41:22;16.30;99.90
6654;DHT22;3363;50.942;7.034;2023-10-09T07:44:04;16.20;99.90
6654;DHT22;3363;50.942;7.034;2023-10-09T07:46:44;16.30;99.90
6654;DHT22;3363;50.942;7.034;2023-10-09T07:49:18;16.30;99.90
6654;DHT22;3363;50.942;7.034;2023-10-09T07:51:50;16.40;99.90
6654;DHT22;3363;50.942;7.034;2023-10-09T07:54:18;16.40;99.90
6654;DHT22;3363;50.942;7.034;2023-10-09T07:56:57;16.30;99.90
6654;DHT22;3363;50.942;7.034;2023-10-09T07:59:34;16.30;99.90
6654;DHT22;3363;50.942;7.034;2023-10-09T08:02:06;16.30;99.90
6654;DHT22;3363;50.942;7.034;2023-10-09T08:04:40;16.30;99.90
6654;DHT22;3363;50.942;7.034;2023-10-09T08:07:15;16.40;99.90
6654;DHT22;3363;50.942;7.034;2023-10-09T08:09:45;16.40;99.90
6654;DHT22;3363;50.942;7.034;2023-10-09T08:12:12;16.40;99.90
6654;DHT22;3363;50.942;7.034;2023-10-09T08:14:56;16.30;99.90
6654;DHT22;3363;50.942;7.034;2023-10-09T08:17:25;16.30;99.90
6654;DHT22;3363;50.942;7.034;2023-10-09T08:19:55;16.30;99.90
6654;DHT22;3363;50.942;7.034;2023-10-09T08:22:23;16.40;99.90
6654;DHT22;3363;50.942;7.034;2023-10-09T08:25:08;16.40;99.90
6654;DHT22;3363;50.942;7.034;2023-10-09T08:27:52;16.40;99.90
6654;DHT22;3363;50.942;7.034;2023-10-09T08:30:21;16.40;99.90
6654;DHT22;3363;50.942;7.034;2023-10-09T08:33:15;16.40;99.90
6654;DHT22;3363;50.942;7.034;2023-10-09T08:36:00;16.50;99.90
6654;DHT22;3363;50.942;7.034;2023-10-09T08:38:30;16.50;99.90
6654;DHT22;3363;50.942;7.034;2023-10-09T08:41:05;16.60;99.90
6654;DHT22;3363;50.942;7.034;2023-10-09T08:43:43;16.60;99.90
6654;DHT22;3363;50.942;7.034;2023-10-09T08:46:12;16.50;99.90
6654;DHT22;3363;50.942;7.034;2023-10-09T08:48:43;16.50;99.90
6654;DHT22;3363;50.942;7.034;2023-10-09T08:51:12;16.50;99.90
6654;DHT22;3363;50.942;7.034;2023-10-09T08:53:39;16.60;99.90
6654;DHT22;3363;50.942;7.034;2023-10-09T08:56:09;16.70;99.90
6654;DHT22;3363;50.942;7.034;2023-10-09T08:58:35;16.70;99.90
6654;DHT22;3363;50.942;7.034;2023-10-09T09:01:03;16.80;99.90
6654;DHT22;3363;50.942;7.034;2023-10-09T09:03:37;16.80;99.90
6654;DHT22;3363;50.942;7.034;2023-10-09T09:06:04;16.80;99.90
6654;DHT22;3363;50.942;7.034;2023-10-09T09:08:32;16.80;99.90
6654;DHT22;3363;50.942;7.034;2023-10-09T09:11:02;16.90;99.90
6654;DHT22;3363;50.942;7.034;2023-10-09T09:13:37;16.90;99.90
6654;DHT22;3363;50.942;7.034;2023-10-09T09:16:12;16.90;99.90
6654;DHT22;3363;50.942;7.034;2023-10-09T09:18:48;16.90;99.90
6654;DHT22;3363;50.942;7.034;2023-10-09T09:21:17;16.90;99.90
6654;DHT22;3363;50.942;7.034;2023-10-09T09:23:54;16.90;99.90
6654;DHT22;3363;50.942;7.034;2023-10-09T09:26:32;17.00;99.90
6654;DHT22;3363;50.942;7.034;2023-10-09T09:29:02;17.00;99.90
6654;DHT22;3363;50.942;7.034;2023-10-09T09:31:31;17.00;99.90
6654;DHT22;3363;50.942;7.034;2023-10-09T09:34:03;17.20;99.90
6654;DHT22;3363;50.942;7.034;2023-10-09T09:36:49;17.20;99.90
6654;DHT22;3363;50.942;7.034;2023-10-09T09:39:22;17.20;99.90
6654;DHT22;3363;50.942;7.034;2023-10-09T09:41:56;17.30;99.90
6654;DHT22;3363;50.942;7.034;2023-10-09T09:44:32;17.30;99.90
6654;DHT22;3363;50.942;7.034;2023-10-09T09:47:08;17.30;99.90
6654;DHT22;3363;50.942;7.034;2023-10-09T09:49:38;17.40;99.90
6654;DHT22;3363;50.942;7.034;2023-10-09T09:52:06;17.40;99.90
6654;DHT22;3363;50.942;7.034;2023-10-09T09:54:37;17.40;99.90
6654;DHT22;3363;50.942;7.034;2023-10-09T09:57:04;17.40;99.90
6654;DHT22;3363;50.942;7.034;2023-10-09T09:59:37;17.50;99.90
6654;DHT22;3363;50.942;7.034;2023-10-09T10:02:05;17.60;99.90
6654;DHT22;3363;50.942;7.034;2023-10-09T10:04:34;17.60;99.90
6654;DHT22;3363;50.942;7.034;2023-10-09T10:07:02;17.80;99.90
6654;DHT22;3363;50.942;7.034;2023-10-09T10:09:34;18.00;99.90
6654;DHT22;3363;50.942;7.034;2023-10-09T10:12:05;18.20;99.90
6654;DHT22;3363;50.942;7.034;2023-10-09T10:14:53;18.40;99.90
6654;DHT22;3363;50.942;7.034;2023-10-09T10:17:22;18.40;99.90
6654;DHT22;3363;50.942;7.034;2023-10-09T10:19:58;18.40;99.90
6654;DHT22;3363;50.942;7.034;2023-10-09T10:22:25;18.50;99.90
6654;DHT22;3363;50.942;7.034;2023-10-09T10:24:53;18.50;99.90
6654;DHT22;3363;50.942;7.034;2023-10-09T10:27:22;18.50;99.90
6654;DHT22;3363;50.942;7.034;2023-10-09T10:32:53;18.50;99.90
6654;DHT22;3363;50.942;7.034;2023-10-09T10:35:19;18.50;99.90
6654;DHT22;3363;50.942;7.034;2023-10-09T10:37:57;18.50;99.90
6654;DHT22;3363;50.942;7.034;2023-10-09T10:40:37;18.60;99.90
6654;DHT22;3363;50.942;7.034;2023-10-09T10:43:15;18.80;99.90
6654;DHT22;3363;50.942;7.034;2023-10-09T10:46:00;18.80;99.90
6654;DHT22;3363;50.942;7.034;2023-10-09T10:48:27;18.70;99.90
6654;DHT22;3363;50.942;7.034;2023-10-09T10:51:03;18.60;99.90
6654;DHT22;3363;50.942;7.034;2023-10-09T10:53:30;18.60;99.90
6654;DHT22;3363;50.942;7.034;2023-10-09T10:56:00;18.60;99.90
6654;DHT22;3363;50.942;7.034;2023-10-09T10:58:51;18.60;99.90
6654;DHT22;3363;50.942;7.034;2023-10-09T11:01:37;18.70;99.90
6654;DHT22;3363;50.942;7.034;2023-10-09T11:04:19;18.70;99.90
6654;DHT22;3363;50.942;7.034;2023-10-09T11:07:04;18.60;99.90
6654;DHT22;3363;50.942;7.034;2023-10-09T11:09:45;18.50;99.90
6654;DHT22;3363;50.942;7.034;2023-10-09T11:12:24;18.60;99.90
6654;DHT22;3363;50.942;7.034;2023-10-09T11:15:05;18.80;99.90
6654;DHT22;3363;50.942;7.034;2023-10-09T11:17:34;18.80;99.90
6654;DHT22;3363;50.942;7.034;2023-10-09T11:20:04;18.90;99.90
6654;DHT22;3363;50.942;7.034;2023-10-09T11:22:48;18.90;99.90
6654;DHT22;3363;50.942;7.034;2023-10-09T11:25:37;19.00;99.90
6654;DHT22;3363;50.942;7.034;2023-10-09T11:28:15;19.20;98.70
6654;DHT22;3363;50.942;7.034;2023-10-09T11:30:54;19.10;95.70
6654;DHT22;3363;50.942;7.034;2023-10-09T11:33:21;19.20;96.40
6654;DHT22;3363;50.942;7.034;2023-10-09T11:35:54;19.20;94.60
6654;DHT22;3363;50.942;7.034;2023-10-09T11:38:22;19.20;92.90
6654;DHT22;3363;50.942;7.034;2023-10-09T11:40:49;19.10;90.60
6654;DHT22;3363;50.942;7.034;2023-10-09T11:43:47;19.30;88.10
6654;DHT22;3363;50.942;7.034;2023-10-09T11:46:24;19.30;90.30
6654;DHT22;3363;50.942;7.034;2023-10-09T11:49:03;19.30;85.80
6654;DHT22;3363;50.942;7.034;2023-10-09T11:52:07;19.20;90.20
6654;DHT22;3363;50.942;7.034;2023-10-09T11:54:50;19.30;85.70
6654;DHT22;3363;50.942;7.034;2023-10-09T11:57:22;19.30;86.70
6654;DHT22;3363;50.942;7.034;2023-10-09T11:59:56;19.30;83.90
6654;DHT22;3363;50.942;7.034;2023-10-09T12:02:24;19.30;80.90
6654;DHT22;3363;50.942;7.034;2023-10-09T12:04:50;19.30;82.70
6654;DHT22;3363;50.942;7.034;2023-10-09T12:07:21;19.40;82.80
6654;DHT22;3363;50.942;7.034;2023-10-09T12:09:48;19.40;85.80
6654;DHT22;3363;50.942;7.034;2023-10-09T12:12:16;19.40;84.90
6654;DHT22;3363;50.942;7.034;2023-10-09T12:14:44;19.40;86.20
6654;DHT22;3363;50.942;7.034;2023-10-09T12:17:10;19.40;86.80
6654;DHT22;3363;50.942;7.034;2023-10-09T12:19:38;19.30;86.60
6654;DHT22;3363;50.942;7.034;2023-10-09T12:22:06;19.30;85.20
6654;DHT22;3363;50.942;7.034;2023-10-09T12:24:36;19.30;84.90
6654;DHT22;3363;50.942;7.034;2023-10-09T12:27:02;19.30;85.10
6654;DHT22;3363;50.942;7.034;2023-10-09T12:29:35;19.30;84.30
6654;DHT22;3363;50.942;7.034;2023-10-09T12:32:01;19.40;84.20
6654;DHT22;3363;50.942;7.034;2023-10-09T12:34:29;19.40;84.80
6654;DHT22;3363;50.942;7.034;2023-10-09T12:36:57;19.40;89.70
6654;DHT22;3363;50.942;7.034;2023-10-09T12:39:26;19.40;87.90
6654;DHT22;3363;50.942;7.034;2023-10-09T12:41:58;19.40;86.70
6654;DHT22;3363;50.942;7.034;2023-10-09T12:44:32;19.40;88.20
6654;DHT22;3363;50.942;7.034;2023-10-09T12:47:04;19.50;84.60
6654;DHT22;3363;50.942;7.034;2023-10-09T12:49:31;19.40;83.90
6654;DHT22;3363;50.942;7.034;2023-10-09T12:51:59;19.40;87.40
6654;DHT22;3363;50.942;7.034;2023-10-09T12:54:26;19.40;87.40
6654;DHT22;3363;50.942;7.034;2023-10-09T12:56:53;19.40;85.30
6654;DHT22;3363;50.942;7.034;2023-10-09T12:59:20;19.30;85.90
6654;DHT22;3363;50.942;7.034;2023-10-09T13:01:48;19.30;85.90
6654;DHT22;3363;50.942;7.034;2023-10-09T13:04:18;19.30;86.90
6654;DHT22;3363;50.942;7.034;2023-10-09T13:06:48;19.40;84.50
6654;DHT22;3363;50.942;7.034;2023-10-09T13:09:19;19.50;82.80
6654;DHT22;3363;50.942;7.034;2023-10-09T13:11:50;19.40;86.80
6654;DHT22;3363;50.942;7.034;2023-10-09T13:14:17;19.40;86.30
6654;DHT22;3363;50.942;7.034;2023-10-09T13:16:47;19.40;86.40
6654;DHT22;3363;50.942;7.034;2023-10-09T13:19:15;19.40;85.50
6654;DHT22;3363;50.942;7.034;2023-10-09T13:21:43;19.40;86.70
6654;DHT22;3363;50.942;7.034;2023-10-09T13:24:09;19.40;85.50
6654;DHT22;3363;50.942;7.034;2023-10-09T13:26:40;19.40;86.10
6654;DHT22;3363;50.942;7.034;2023-10-09T13:29:10;19.40;84.70
6654;DHT22;3363;50.942;7.034;2023-10-09T13:31:37;19.40;82.80
6654;DHT22;3363;50.942;7.034;2023-10-09T13:34:05;19.40;84.40
6654;DHT22;3363;50.942;7.034;2023-10-09T13:36:35;19.40;84.00
6654;DHT22;3363;50.942;7.034;2023-10-09T13:39:03;19.50;82.80
6654;DHT22;3363;50.942;7.034;2023-10-09T13:41:49;19.50;83.70
6654;DHT22;3363;50.942;7.034;2023-10-09T13:44:18;19.40;85.70
6654;DHT22;3363;50.942;7.034;2023-10-09T13:46:45;19.40;85.10
6654;DHT22;3363;50.942;7.034;2023-10-09T13:49:15;19.40;86.70
6654;DHT22;3363;50.942;7.034;2023-10-09T13:51:42;19.50;91.50
6654;DHT22;3363;50.942;7.034;2023-10-09T13:54:10;19.50;85.30
6654;DHT22;3363;50.942;7.034;2023-10-09T13:56:43;19.50;87.30
6654;DHT22;3363;50.942;7.034;2023-10-09T13:59:11;19.40;87.30
6654;DHT22;3363;50.942;7.034;2023-10-09T14:01:38;19.40;86.80
6654;DHT22;3363;50.942;7.034;2023-10-09T14:04:05;19.40;84.70
6654;DHT22;3363;50.942;7.034;2023-10-09T14:06:32;19.50;87.50
6654;DHT22;3363;50.942;7.034;2023-10-09T14:09:00;19.60;86.00
6654;DHT22;3363;50.942;7.034;2023-10-09T14:11:29;19.50;89.40
6654;DHT22;3363;50.942;7.034;2023-10-09T14:13:56;19.60;85.80
6654;DHT22;3363;50.942;7.034;2023-10-09T14:16:27;19.70;84.50
6654;DHT22;3363;50.942;7.034;2023-10-09T14:18:55;19.70;85.20
6654;DHT22;3363;50.942;7.034;2023-10-09T14:21:24;19.70;85.40
6654;DHT22;3363;50.942;7.034;2023-10-09T14:23:52;19.70;85.60
6654;DHT22;3363;50.942;7.034;2023-10-09T14:26:26;19.70;84.90
6654;DHT22;3363;50.942;7.034;2023-10-09T14:28:53;19.70;84.80
6654;DHT22;3363;50.942;7.034;2023-10-09T14:31:23;19.70;89.70
6654;DHT22;3363;50.942;7.034;2023-10-09T14:33:55;19.80;83.90
6654;DHT22;3363;50.942;7.034;2023-10-09T14:36:22;19.80;83.50
6654;DHT22;3363;50.942;7.034;2023-10-09T14:38:51;19.80;83.20
6654;DHT22;3363;50.942;7.034;2023-10-09T14:41:20;19.80;82.90
6654;DHT22;3363;50.942;7.034;2023-10-09T14:43:49;19.80;82.90
6654;DHT22;3363;50.942;7.034;2023-10-09T14:46:16;19.90;83.00
6654;DHT22;3363;50.942;7.034;2023-10-09T14:48:49;19.90;81.90
6654;DHT22;3363;50.942;7.034;2023-10-09T14:51:20;20.00;82.40
6654;DHT22;3363;50.942;7.034;2023-10-09T14:53:55;20.00;80.60
6654;DHT22;3363;50.942;7.034;2023-10-09T14:56:25;20.00;81.40
6654;DHT22;3363;50.942;7.034;2023-10-09T14:58:56;19.90;83.60
6654;DHT22;3363;50.942;7.034;2023-10-09T15:01:23;19.90;82.10
6654;DHT22;3363;50.942;7.034;2023-10-09T15:03:51;19.90;84.00
6654;DHT22;3363;50.942;7.034;2023-10-09T15:06:22;20.00;80.30
6654;DHT22;3363;50.942;7.034;2023-10-09T15:08:50;19.90;81.40
6654;DHT22;3363;50.942;7.034;2023-10-09T15:11:21;19.80;83.10
6654;DHT22;3363;50.942;7.034;2023-10-09T15:13:49;19.80;82.70
6654;DHT22;3363;50.942;7.034;2023-10-09T15:16:17;19.80;82.60
6654;DHT22;3363;50.942;7.034;2023-10-09T15:18:46;19.70;83.00
6654;DHT22;3363;50.942;7.034;2023-10-09T15:21:18;19.80;84.70
6654;DHT22;3363;50.942;7.034;2023-10-09T15:23:47;19.80;84.70
6654;DHT22;3363;50.942;7.034;2023-10-09T15:26:16;19.70;83.00
6654;DHT22;3363;50.942;7.034;2023-10-09T15:28:43;19.70;84.10
6654;DHT22;3363;50.942;7.034;2023-10-09T15:31:10;19.80;83.10
6654;DHT22;3363;50.942;7.034;2023-10-09T15:33:37;19.80;82.30
6654;DHT22;3363;50.942;7.034;2023-10-09T15:36:10;19.70;83.40
6654;DHT22;3363;50.942;7.034;2023-10-09T15:38:37;19.70;83.30
6654;DHT22;3363;50.942;7.034;2023-10-09T15:41:05;19.70;83.30
6654;DHT22;3363;50.942;7.034;2023-10-09T15:43:32;19.70;81.90
6654;DHT22;3363;50.942;7.034;2023-10-09T15:45:59;19.70;82.70
6654;DHT22;3363;50.942;7.034;2023-10-09T15:48:27;19.60;82.70
6654;DHT22;3363;50.942;7.034;2023-10-09T15:50:53;19.70;82.00
6654;DHT22;3363;50.942;7.034;2023-10-09T15:53:20;19.70;81.10
6654;DHT22;3363;50.942;7.034;2023-10-09T15:55:49;19.70;81.70
6654;DHT22;3363;50.942;7.034;2023-10-09T15:58:24;19.60;81.40
6654;DHT22;3363;50.942;7.034;2023-10-09T16:00:50;19.60;80.60
6654;DHT22;3363;50.942;7.034;2023-10-09T16:03:17;19.60;81.20
6654;DHT22;3363;50.942;7.034;2023-10-09T16:05:44;19.60;82.90
6654;DHT22;3363;50.942;7.034;2023-10-09T16:08:12;19.50;81.50
6654;DHT22;3363;50.942;7.034;2023-10-09T16:10:39;19.50;81.90
6654;DHT22;3363;50.942;7.034;2023-10-09T16:13:06;19.40;82.80
6654;DHT22;3363;50.942;7.034;2023-10-09T16:15:42;19.40;82.70
6654;DHT22;3363;50.942;7.034;2023-10-09T16:18:09;19.30;82.90
6654;DHT22;3363;50.942;7.034;2023-10-09T16:20:37;19.30;83.60
6654;DHT22;3363;50.942;7.034;2023-10-09T16:23:05;19.30;82.80
6654;DHT22;3363;50.942;7.034;2023-10-09T16:25:35;19.20;83.30
6654;DHT22;3363;50.942;7.034;2023-10-09T16:28:02;19.20;85.10
6654;DHT22;3363;50.942;7.034;2023-10-09T16:30:29;19.10;85.70
6654;DHT22;3363;50.942;7.034;2023-10-09T16:32:57;19.10;84.80
6654;DHT22;3363;50.942;7.034;2023-10-09T16:35:26;19.10;84.80
6654;DHT22;3363;50.942;7.034;2023-10-09T16:37:52;19.10;86.10
6654;DHT22;3363;50.942;7.034;2023-10-09T16:40:19;19.00;86.40